Time;durP1;ratioP1;P1;durP2;ratioP2;P2;SDS_P1;SDS_P2;PMS_P1;PMS_P2;Temp;Humidity;BMP_temperature;BMP_pressure;BME280_temperature;BME280_humidity;BME280_pressure;Samples;Min_cycle;Max_cycle;Signal;HPM_P1;HPM_P2
2024/03/25 11:04:57;;;;;;;4.70;2.30;;;;;;;7.64;66.79;97895.33;102619;1291;648487;-78
2024/03/25 11:08:47;;;;;;;5.00;2.80;;;;;;;7.78;66.87;97890.30;104403;1274;95368;-78
2024/03/25 11:11:56;;;;;;;3.70;1.90;;;;;;;7.97;66.84;97888.29;105142;1268;95276;-78
2024/03/25 11:15:17;;;;;;;;;;;;;;;;;;;;;
2024/03/25 11:19:06;;;;;;;3.00;2.00;;;;;;;8.30;66.83;97879.63;100257;1264;96301;-79
2024/03/25 11:22:38;;;;;;;3.20;1.70;;;;;;;8.46;66.77;97868.38;104920;1264;95303;-79
2024/03/25 11:26:05;;;;;;;;;;;;;;;;;;;;;
2024/03/25 11:29:04;;;;;;;3.60;1.70;;;;;;;8.69;66.59;97871.13;105486;1261;95908;-79
2024/03/25 11:33:05;;;;;;;3.60;2.20;;;;;;;8.69;66.56;97870.07;105299;1260;107500;-78
2024/03/25 11:36:35;;;;;;;3.30;1.80;;;;;;;8.71;66.39;97866.00;105112;1269;95252;-79
2024/03/25 11:39:41;;;;;;;3.00;1.60;;;;;;;8.76;66.64;97865.05;105155;1258;96618;-78
2024/03/25 11:43:39;;;;;;;;;;;;;;;;;;;;;
2024/03/25 11:47:06;;;;;;;3.00;1.90;;;;;;;8.82;66.55;97862.80;105487;1258;97549;-77
2024/03/25 11:50:29;;;;;;;;;;;;;;;;;;;;;
2024/03/25 11:53:36;;;;;;;2.80;1.90;;;;;;;8.89;66.20;97857.95;105461;1260;96691;-79
2024/03/25 11:56:37;;;;;;;3.20;1.80;;;;;;;8.89;66.00;97853.16;105170;1264;97977;-79
2024/03/25 11:59:30;;;;;;;;;;;;;;;;;;;;;
2024/03/25 12:03:08;;;;;;;;;;;;;;;;;;;;;
2024/03/25 12:06:59;;;;;;;;;;;;;;;;;;;;;
2024/03/25 12:17:44;;;;;;;3.10;1.60;;;;;;;9.28;65.72;97856.92;105319;1265;110567;-76
2024/03/25 12:20:57;;;;;;;3.30;2.00;;;;;;;9.18;65.47;97856.93;105679;1259;96612;-79
2024/03/25 12:24:23;;;;;;;3.70;2.20;;;;;;;9.08;65.58;97859.32;105171;1263;108191;-77
2024/03/25 12:27:45;;;;;;;;;;;;;;;9.07;65.66;97862.14;105554;1264;96757;-78
2024/03/25 12:31:28;;;;;;;5.00;2.70;;;;;;;8.97;65.46;97860.48;105125;1269;96789;-78
2024/03/25 12:35:01;;;;;;;4.00;2.30;;;;;;;8.89;65.62;97862.56;105099;1267;110347;-77
2024/03/25 12:38:11;;;;;;;;;;;;;;;8.93;65.59;97858.48;104891;1270;97490;-78
2024/03/25 12:41:32;;;;;;;4.90;2.80;;;;;;;9.00;65.60;97848.73;104950;1264;107991;-78
2024/03/25 12:49:16;;;;;;;3.20;2.00;;;;;;;9.15;65.35;97851.02;105114;1262;96629;-78
2024/03/25 12:53:04;;;;;;;;;;;;;;;;;;;;;
2024/03/25 12:56:29;;;;;;;2.90;1.80;;;;;;;9.06;65.11;97852.30;105625;1269;96950;-79
2024/03/25 12:59:40;;;;;;;3.10;2.00;;;;;;;9.00;65.01;97851.39;105211;1260;107338;-78
2024/03/25 13:03:21;;;;;;;3.10;1.40;;;;;;;8.92;64.99;97853.09;105045;1260;96657;-78
2024/03/25 13:06:54;;;;;;;3.10;1.90;;;;;;;8.83;65.01;97851.89;105260;1260;96702;-78
2024/03/25 13:10:56;;;;;;;;;;;;;;;;;;;;;
2024/03/25 13:14:37;;;;;;;3.30;1.90;;;;;;;8.76;65.03;97842.08;105580;1261;96677;-78
2024/03/25 13:17:49;;;;;;;4.30;2.20;;;;;;;8.75;65.13;97838.06;105361;1260;108904;-77
2024/03/25 13:21:36;;;;;;;;;;;;;;;;;;;;;
2024/03/25 13:25:23;;;;;;;2.90;1.90;;;;;;;8.90;65.01;97846.95;105387;1275;96619;-79
2024/03/25 13:33:15;;;;;;;;;;;;;;;;;;;;;
2024/03/25 13:44:35;;;;;;;;;;;;;;;;;;;;;
2024/03/25 13:48:09;;;;;;;3.60;1.90;;;;;;;9.26;64.88;97858.70;104703;1270;110121;-79
2024/03/25 13:51:29;;;;;;;3.50;2.00;;;;;;;9.24;64.70;97858.32;104783;1268;97302;-78
2024/03/25 13:54:53;;;;;;;;;;;;;;;;;;;;;
2024/03/25 13:58:08;;;;;;;;;;;;;;;;;;;;;
2024/03/25 14:01:24;;;;;;;4.00;2.20;;;;;;;9.00;64.47;97871.00;105110;1268;96614;-77
2024/03/25 14:04:17;;;;;;;;;;;;;;;;;;;;;
2024/03/25 14:07:42;;;;;;;6.20;3.10;;;;;;;8.88;64.37;97887.02;105073;1264;96598;-79
2024/03/25 14:11:13;;;;;;;3.70;2.10;;;;;;;8.70;63.88;97915.19;105720;1258;106986;-78
2024/03/25 14:14:32;;;;;;;5.20;3.80;;;;;;;8.17;63.34;97915.63;105350;1261;97827;-80
2024/03/25 14:17:08;;;;;;;8.60;3.90;;;;;;;7.68;63.52;97927.08;105720;1257;97931;-76
2024/03/25 14:19:44;;;;;;;;;;;;;;;;;;;;;
2024/03/25 14:22:32;;;;;;;3.60;2.00;;;;;;;6.87;63.55;97939.31;105726;1257;96547;-81
2024/03/25 14:35:48;;;;;;;4.30;2.80;;;;;;;6.90;63.95;97938.52;102870;1287;648648;-78
2024/03/25 14:38:28;;;;;;;4.80;3.30;;;;;;;6.87;64.50;97935.99;104434;1268;219264;-77
2024/03/25 14:40:58;;;;;;;5.50;3.40;;;;;;;6.86;64.53;97936.94;105175;1262;95334;-77
2024/03/25 14:43:27;;;;;;;5.50;2.70;;;;;;;6.85;64.84;97933.09;105534;1260;108010;-78
2024/03/25 14:45:57;;;;;;;5.00;2.50;;;;;;;6.88;64.87;97929.88;104952;1262;95244;-75
2024/03/25 14:48:24;;;;;;;7.40;3.00;;;;;;;6.92;64.91;97926.55;104949;1261;107859;-75
2024/03/25 14:50:52;;;;;;;8.30;4.70;;;;;;;6.94;65.08;97924.86;104937;1262;95298;-75
2024/03/25 14:53:19;;;;;;;8.70;5.00;;;;;;;6.95;65.08;97927.94;105052;1257;95701;-77
2024/03/25 14:55:47;;;;;;;9.00;4.70;;;;;;;6.94;64.98;97934.71;105096;1260;107709;-75
2024/03/25 14:58:15;;;;;;;16.60;9.60;;;;;;;6.94;65.09;97939.98;104857;1257;95182;-77
2024/03/25 15:00:43;;;;;;;10.00;4.80;;;;;;;6.94;65.10;97948.26;104805;1263;107818;-76
2024/03/25 15:03:10;;;;;;;5.60;3.80;;;;;;;6.93;65.03;97958.11;105044;1263;98005;-77
2024/03/25 15:05:38;;;;;;;4.10;2.90;;;;;;;6.89;64.95;97965.94;105210;1257;96667;-76
2024/03/25 15:08:06;;;;;;;4.40;2.60;;;;;;;6.82;64.95;97979.98;104847;1261;108864;-76
2024/03/25 15:10:34;;;;;;;5.20;2.70;;;;;;;6.74;64.86;97985.00;105002;1257;96659;-76
2024/03/25 15:13:02;;;;;;;5.00;3.10;;;;;;;6.66;65.12;97987.92;105110;1263;107391;-77
2024/03/25 15:15:34;;;;;;;5.00;2.90;;;;;;;6.59;65.27;97983.80;104819;1263;96745;-76
2024/03/25 15:18:02;;;;;;;5.00;3.10;;;;;;;6.56;65.24;97979.80;104810;1271;97531;-77
2024/03/25 15:20:29;;;;;;;4.40;2.70;;;;;;;6.60;65.59;97976.16;105002;1263;110523;-77
2024/03/25 15:22:57;;;;;;;4.10;2.50;;;;;;;6.64;65.52;97973.05;105274;1256;96617;-76
2024/03/25 15:25:25;;;;;;;10.50;4.90;;;;;;;6.70;65.46;97974.18;104769;1257;107468;-77
2024/03/25 15:27:53;;;;;;;8.50;4.80;;;;;;;6.76;65.57;97969.53;105060;1263;96616;-76
2024/03/25 15:30:21;;;;;;;10.00;5.90;;;;;;;6.81;65.57;97970.05;105113;1257;97986;-77
2024/03/25 15:32:48;;;;;;;8.90;4.00;;;;;;;6.88;65.56;97970.62;104995;1260;110111;-76
2024/03/25 15:35:16;;;;;;;9.10;4.70;;;;;;;6.92;65.65;97970.84;105204;1258;97394;-75
2024/03/25 15:37:44;;;;;;;7.80;4.30;;;;;;;6.91;65.69;97965.84;104883;1257;107431;-76
2024/03/25 15:40:15;;;;;;;7.80;3.80;;;;;;;6.90;65.82;97965.73;105000;1260;96580;-76
2024/03/25 15:42:43;;;;;;;5.00;2.90;;;;;;;6.89;65.63;97961.19;105092;1263;96632;-76
2024/03/25 15:45:11;;;;;;;5.30;2.80;;;;;;;6.89;65.53;97967.92;104717;1263;109814;-76
2024/03/25 15:47:38;;;;;;;4.20;2.50;;;;;;;6.87;65.83;97971.59;104735;1260;96695;-77
2024/03/25 15:50:07;;;;;;;7.20;3.90;;;;;;;6.85;65.60;97971.34;105001;1263;107938;-77
2024/03/25 15:52:36;;;;;;;10.60;5.90;;;;;;;6.83;65.68;97968.84;105111;1263;96614;-76
2024/03/25 15:55:11;;;;;;;11.60;6.60;;;;;;;6.80;65.90;97973.11;104968;1261;96573;-76
2024/03/25 15:57:39;;;;;;;11.60;6.90;;;;;;;6.76;65.97;97975.69;105228;1260;109934;-76
2024/03/25 16:00:07;;;;;;;17.90;10.10;;;;;;;6.76;65.99;97978.70;105079;1260;97489;-75
2024/03/25 16:02:36;;;;;;;16.90;9.40;;;;;;;6.74;65.97;97986.40;105139;1260;107764;-79
2024/03/25 16:05:05;;;;;;;15.50;9.50;;;;;;;6.71;65.94;97983.14;105016;1260;97159;-83
2024/03/25 16:07:34;;;;;;;16.00;10.40;;;;;;;6.65;65.79;97986.77;105312;1257;97490;-74
2024/03/25 16:10:02;;;;;;;24.30;11.20;;;;;;;6.58;65.90;97986.90;105295;1261;109946;-75
2024/03/25 16:12:31;;;;;;;22.00;11.90;;;;;;;6.50;66.14;97985.35;105339;1262;96712;-78
2024/03/25 16:14:59;;;;;;;26.90;14.40;;;;;;;6.45;66.09;97989.09;105385;1262;106878;-73
2024/03/25 16:17:27;;;;;;;32.90;17.10;;;;;;;6.38;65.95;97995.40;105141;1259;97323;-72
2024/03/25 16:19:55;;;;;;;35.30;21.20;;;;;;;6.31;66.04;97993.23;105310;1261;96658;-76
2024/03/25 16:22:23;;;;;;;35.70;22.10;;;;;;;6.27;66.44;97995.30;105677;1260;109040;-78
2024/03/25 16:24:51;;;;;;;39.80;24.90;;;;;;;6.27;66.47;97996.20;105193;1260;96963;-76
2024/03/25 16:27:19;;;;;;;37.40;22.00;;;;;;;6.26;66.50;97999.08;104827;1263;107059;-77
2024/03/25 16:29:46;;;;;;;27.50;17.60;;;;;;;6.26;66.78;98000.65;105984;1262;96623;-78
2024/03/25 16:32:14;;;;;;;32.40;18.10;;;;;;;6.25;66.56;98004.77;105052;1263;96620;-79
2024/03/25 16:34:42;;;;;;;42.30;21.90;;;;;;;6.25;66.75;98001.92;105605;1260;109138;-76
2024/03/25 16:37:09;;;;;;;51.50;23.00;;;;;;;6.26;66.80;98004.71;105095;1260;97970;-77
2024/03/25 16:39:39;;;;;;;49.80;25.70;;;;;;;6.24;66.71;98006.75;104847;1257;106897;-77
2024/03/25 16:42:06;;;;;;;50.50;26.20;;;;;;;6.20;66.73;98012.84;106960;1261;96655;-78
2024/03/25 16:44:34;;;;;;;49.80;24.60;;;;;;;6.15;66.35;98012.35;105188;1260;96627;-77
2024/03/25 16:47:02;;;;;;;44.00;24.50;;;;;;;6.09;66.73;98011.52;105265;1259;109156;-78
2024/03/25 16:49:30;;;;;;;44.00;23.90;;;;;;;6.06;66.74;98011.08;105583;1260;96614;-77
2024/03/25 16:51:57;;;;;;;45.00;23.80;;;;;;;6.03;66.82;98011.60;104970;1260;106960;-78
2024/03/25 16:54:27;;;;;;;41.50;23.00;;;;;;;6.02;67.02;98014.88;105257;1257;96632;-77
2024/03/25 16:56:55;;;;;;;36.80;19.60;;;;;;;6.02;66.87;98019.27;105144;1260;97279;-77
2024/03/25 16:59:24;;;;;;;32.40;17.40;;;;;;;5.99;67.13;98021.73;105250;1257;109931;-78
2024/03/25 17:01:54;;;;;;;41.10;22.70;;;;;;;5.96;66.97;98021.34;104967;1258;96665;-76
2024/03/25 17:04:22;;;;;;;46.30;25.40;;;;;;;5.92;66.79;98025.17;105310;1258;107580;-78
2024/03/25 17:06:51;;;;;;;48.10;25.90;;;;;;;5.85;66.94;98022.71;105248;1257;96634;-78
2024/03/25 17:09:19;;;;;;;38.80;20.20;;;;;;;5.82;66.96;98026.26;105205;1260;97000;-76
2024/03/25 17:11:47;;;;;;;22.60;14.00;;;;;;;5.81;66.88;98032.63;105480;1258;110255;-76
2024/03/25 17:14:15;;;;;;;23.00;12.90;;;;;;;5.78;66.74;98034.58;105215;1257;97567;-76
2024/03/25 17:16:43;;;;;;;23.20;11.60;;;;;;;5.73;67.00;98034.95;104988;1273;107266;-75
2024/03/25 17:19:11;;;;;;;21.50;11.20;;;;;;;5.69;66.84;98040.11;105311;1262;96953;-78
2024/03/25 17:21:39;;;;;;;21.40;13.50;;;;;;;5.66;66.89;98043.71;104874;1263;96672;-76
2024/03/25 17:24:06;;;;;;;20.00;13.80;;;;;;;5.61;66.78;98047.20;105138;1263;110156;-76
2024/03/25 17:26:34;;;;;;;18.20;11.80;;;;;;;5.57;66.86;98050.84;105217;1257;96760;-78
2024/03/25 17:29:02;;;;;;;19.60;13.40;;;;;;;5.52;66.95;98051.13;106220;1259;108900;-75
2024/03/25 17:31:29;;;;;;;19.10;12.00;;;;;;;5.48;67.01;98056.52;105039;1257;96696;-75
2024/03/25 17:33:57;;;;;;;20.70;14.30;;;;;;;5.46;67.12;98060.37;104975;1260;96556;-77
2024/03/25 17:36:24;;;;;;;28.70;16.30;;;;;;;5.43;66.96;98068.49;104974;1258;109911;-75
2024/03/25 17:38:52;;;;;;;29.70;16.00;;;;;;;5.39;67.09;98066.65;105306;1260;97499;-77
2024/03/25 17:41:19;;;;;;;33.20;16.00;;;;;;;5.38;67.09;98070.21;104823;1263;106410;-76
2024/03/25 17:43:47;;;;;;;36.40;19.60;;;;;;;5.37;67.02;98073.77;105395;1260;97144;-75
2024/03/25 17:46:14;;;;;;;27.80;15.80;;;;;;;5.36;67.29;98072.93;105344;1258;96695;-76
2024/03/25 17:48:43;;;;;;;22.10;13.30;;;;;;;5.37;67.14;98074.87;105331;1260;108631;-75
2024/03/25 17:51:11;;;;;;;15.50;11.30;;;;;;;5.35;67.18;98070.76;105221;1260;96658;-76
2024/03/25 17:53:38;;;;;;;21.10;14.30;;;;;;;5.34;67.21;98071.52;105224;1258;107600;-76
2024/03/25 17:56:06;;;;;;;16.10;11.10;;;;;;;5.34;67.38;98072.23;105221;1263;96720;-79
2024/03/25 17:58:33;;;;;;;13.20;9.40;;;;;;;5.34;67.33;98073.98;105432;1257;96565;-76
2024/03/25 18:01:01;;;;;;;13.10;8.70;;;;;;;5.34;67.27;98077.15;104929;1263;109416;-76
2024/03/25 18:03:29;;;;;;;16.10;9.40;;;;;;;5.34;67.33;98077.82;105359;1258;96620;-79
2024/03/25 18:05:59;;;;;;;18.60;11.80;;;;;;;5.34;67.29;98077.66;105143;1262;107418;-77
2024/03/25 18:08:26;;;;;;;23.20;14.30;;;;;;;5.33;67.51;98076.85;105221;1260;97970;-76
2024/03/25 18:10:54;;;;;;;25.00;13.40;;;;;;;5.31;67.38;98078.36;105267;1270;97548;-77
2024/03/25 18:13:21;;;;;;;22.00;11.30;;;;;;;5.29;67.50;98078.19;105221;1257;109022;-75
2024/03/25 18:15:51;;;;;;;24.90;12.30;;;;;;;5.26;67.35;98081.38;105426;1260;97201;-75
2024/03/25 18:18:20;;;;;;;28.20;11.00;;;;;;;5.22;67.33;98086.55;104985;1263;107330;-77
2024/03/25 18:20:47;;;;;;;25.80;12.00;;;;;;;5.18;67.17;98087.14;105325;1257;96590;-76
2024/03/25 18:23:15;;;;;;;25.60;11.50;;;;;;;5.15;67.33;98085.45;105112;1257;96611;-76
2024/03/25 18:25:44;;;;;;;23.30;11.90;;;;;;;5.11;67.43;98088.36;104975;1258;109570;-76
2024/03/25 18:28:12;;;;;;;20.70;13.00;;;;;;;5.08;67.56;98088.56;105362;1260;97451;-77
2024/03/25 18:30:40;;;;;;;25.20;15.10;;;;;;;5.04;67.67;98091.73;105225;1257;108094;-76
2024/03/25 18:33:08;;;;;;;29.20;15.80;;;;;;;5.01;67.41;98095.47;105325;1260;97081;-76
2024/03/25 18:35:36;;;;;;;42.40;21.00;;;;;;;4.97;67.39;98096.11;105126;1263;96800;-76
2024/03/25 18:38:03;;;;;;;48.40;22.50;;;;;;;4.91;67.38;98098.20;104931;1260;109921;-75
2024/03/25 18:40:32;;;;;;;46.50;22.40;;;;;;;4.87;67.33;98100.41;105192;1254;96665;-75
2024/03/25 18:42:59;;;;;;;36.60;18.20;;;;;;;4.83;67.22;98102.99;105449;1260;107563;-76
2024/03/25 18:45:27;;;;;;;26.10;13.50;;;;;;;4.81;67.59;98106.09;105153;1277;97938;-76
2024/03/25 18:47:54;;;;;;;27.60;14.60;;;;;;;4.79;67.65;98109.53;105258;1254;98602;-77
2024/03/25 18:50:22;;;;;;;24.20;13.70;;;;;;;4.78;67.42;98110.49;105859;1255;110464;-77
2024/03/25 18:52:49;;;;;;;51.40;21.00;;;;;;;4.76;67.53;98119.19;105488;1257;97969;-79
2024/03/25 18:55:17;;;;;;;49.40;20.80;;;;;;;4.74;67.61;98121.77;105672;1260;106627;-78
2024/03/25 18:57:44;;;;;;;51.50;21.40;;;;;;;4.73;67.66;98127.86;105538;1254;98091;-77
2024/03/25 19:00:13;;;;;;;43.60;19.80;;;;;;;4.70;67.71;98128.42;105410;1253;99276;-78
2024/03/25 19:02:41;;;;;;;50.60;22.30;;;;;;;4.67;67.74;98129.13;105462;1260;111274;-78
2024/03/25 19:05:08;;;;;;;56.10;24.30;;;;;;;4.64;67.62;98130.52;105435;1257;97901;-78
2024/03/25 19:07:36;;;;;;;66.50;29.40;;;;;;;4.62;67.67;98132.93;105384;1257;107894;-78
2024/03/25 19:10:05;;;;;;;45.40;20.70;;;;;;;4.61;67.85;98135.45;105398;1254;98171;-77
2024/03/25 19:12:32;;;;;;;49.30;24.10;;;;;;;4.61;67.95;98139.10;105296;1256;97964;-77
2024/03/25 19:15:00;;;;;;;43.40;21.40;;;;;;;4.58;67.92;98139.16;105458;1256;112264;-77
2024/03/25 19:17:27;;;;;;;38.50;18.40;;;;;;;4.56;67.92;98138.54;105490;1257;97891;-79
2024/03/25 19:19:55;;;;;;;36.50;17.60;;;;;;;4.54;67.84;98140.76;105376;1260;107289;-77
2024/03/25 19:22:22;;;;;;;39.60;18.90;;;;;;;4.52;67.92;98139.14;105439;1257;98035;-78
2024/03/25 19:24:50;;;;;;;40.40;18.10;;;;;;;4.48;67.75;98139.04;106644;1254;97886;-77
2024/03/25 19:27:19;;;;;;;45.70;21.40;;;;;;;4.45;68.06;98142.92;105214;1256;110546;-77
2024/03/25 19:29:46;;;;;;;39.40;17.70;;;;;;;4.42;67.93;98145.20;105497;1259;98362;-76
2024/03/25 19:32:14;;;;;;;35.90;16.00;;;;;;;4.41;68.13;98150.02;105277;1256;106572;-76
2024/03/25 19:34:41;;;;;;;30.40;13.50;;;;;;;4.40;67.96;98154.68;105715;1268;98030;-76
2024/03/25 19:37:09;;;;;;;33.10;14.30;;;;;;;4.36;67.99;98158.55;105489;1257;97953;-76
2024/03/25 19:39:39;;;;;;;35.50;14.90;;;;;;;4.36;68.01;98161.02;105647;1257;110106;-78
2024/03/25 19:42:06;;;;;;;41.60;18.60;;;;;;;4.33;68.11;98164.54;106319;1256;97868;-77
2024/03/25 19:44:34;;;;;;;43.10;18.90;;;;;;;4.31;67.99;98165.00;106027;1260;107162;-78
2024/03/25 19:47:03;;;;;;;46.60;19.30;;;;;;;4.29;68.13;98166.91;106017;1257;98044;-79
2024/03/25 19:49:30;;;;;;;47.30;19.00;;;;;;;4.27;68.15;98166.34;106356;1258;97961;-77
2024/03/25 19:51:58;;;;;;;48.00;19.30;;;;;;;4.25;68.04;98168.86;106152;1254;110873;-77
2024/03/25 19:54:26;;;;;;;47.90;19.60;;;;;;;4.24;68.10;98171.97;106326;1254;97896;-77
2024/03/25 19:56:53;;;;;;;59.60;24.90;;;;;;;4.24;68.06;98170.20;106215;1260;107087;-77
2024/03/25 19:59:21;;;;;;;45.70;19.50;;;;;;;4.26;68.19;98172.48;106642;1259;97765;-78
2024/03/25 20:01:49;;;;;;;40.00;17.80;;;;;;;4.30;68.17;98173.31;106921;1256;97960;-79
2024/03/25 20:04:17;;;;;;;33.60;15.70;;;;;;;4.35;68.62;98180.39;106590;1257;111148;-78
2024/03/25 20:06:45;;;;;;;39.30;18.00;;;;;;;4.39;68.55;98184.17;106806;1257;98053;-78
2024/03/25 20:09:12;;;;;;;39.20;17.30;;;;;;;4.42;68.41;98187.50;106568;1256;107774;-77
2024/03/25 20:11:40;;;;;;;32.60;14.40;;;;;;;4.45;68.44;98186.65;106003;1254;98706;-78
2024/03/25 20:14:09;;;;;;;28.20;12.70;;;;;;;4.45;68.45;98190.48;105716;1254;97971;-79
2024/03/25 20:16:36;;;;;;;20.10;10.30;;;;;;;4.45;68.36;98190.15;106152;1257;111058;-76
2024/03/25 20:19:04;;;;;;;21.70;10.80;;;;;;;4.44;68.32;98191.44;105984;1260;99286;-77
2024/03/25 20:21:31;;;;;;;32.40;16.80;;;;;;;4.41;68.42;98191.11;106683;1254;106451;-78
2024/03/25 20:23:59;;;;;;;32.10;14.30;;;;;;;4.39;68.61;98194.02;106699;1260;97929;-81
2024/03/25 20:26:27;;;;;;;26.20;11.70;;;;;;;4.37;68.54;98193.77;106549;1257;97797;-78
2024/03/25 20:28:54;;;;;;;19.80;9.60;;;;;;;4.36;68.59;98194.91;106181;1256;112585;-79
2024/03/25 20:31:22;;;;;;;20.60;10.40;;;;;;;4.36;68.43;98198.44;106285;1261;264270;-78
2024/03/25 20:33:51;;;;;;;20.50;11.40;;;;;;;4.33;68.52;98198.09;105221;1262;107815;-80
2024/03/25 20:36:19;;;;;;;23.30;12.10;;;;;;;4.29;68.44;98198.66;105238;1262;98448;-78
2024/03/25 20:38:47;;;;;;;29.10;15.30;;;;;;;4.24;68.39;98201.46;105166;1263;98169;-80
2024/03/25 20:41:18;;;;;;;27.10;16.10;;;;;;;4.19;68.57;98202.09;105635;1260;111507;-79
2024/03/25 20:43:47;;;;;;;24.20;14.70;;;;;;;4.15;68.53;98203.73;105376;1262;97896;-78
2024/03/25 20:46:16;;;;;;;22.30;12.70;;;;;;;4.12;68.48;98206.17;105203;1271;106830;-79
2024/03/25 20:48:43;;;;;;;20.20;10.90;;;;;;;4.09;68.54;98206.38;105192;1263;99278;-79
2024/03/25 20:51:11;;;;;;;17.40;9.80;;;;;;;4.07;68.68;98204.36;105031;1262;98136;-79
2024/03/25 20:53:38;;;;;;;18.60;9.10;;;;;;;4.04;68.79;98202.42;105049;1258;110410;-78
2024/03/25 20:56:06;;;;;;;14.70;8.90;;;;;;;4.01;68.63;98204.38;105397;1262;97979;-79
2024/03/25 20:58:34;;;;;;;13.90;9.10;;;;;;;3.97;68.64;98210.55;106092;1263;106345;-78
2024/03/25 21:01:03;;;;;;;19.40;10.80;;;;;;;3.94;68.63;98211.46;105226;1262;98062;-79
2024/03/25 21:03:31;;;;;;;16.60;9.50;;;;;;;3.90;68.68;98210.29;105185;1262;98039;-78
2024/03/25 21:05:59;;;;;;;15.80;8.80;;;;;;;3.88;68.70;98210.40;105190;1262;110567;-78
2024/03/25 21:08:27;;;;;;;16.10;8.50;;;;;;;3.87;68.75;98211.13;105125;1262;97941;-79
2024/03/25 21:10:55;;;;;;;13.80;8.20;;;;;;;3.86;68.74;98214.90;106420;1262;107620;-79
2024/03/25 21:13:23;;;;;;;14.50;7.70;;;;;;;3.84;68.57;98215.92;105264;1262;97989;-80
2024/03/25 21:15:51;;;;;;;14.80;8.20;;;;;;;3.81;68.75;98215.54;105490;1263;97891;-80
2024/03/25 21:18:18;;;;;;;12.20;7.40;;;;;;;3.77;68.58;98214.23;105092;1262;111262;-80
2024/03/25 21:20:46;;;;;;;13.00;6.50;;;;;;;3.75;68.57;98217.48;104967;1263;97962;-80
2024/03/25 21:23:17;;;;;;;14.50;8.20;;;;;;;3.71;68.61;98215.05;105173;1263;107752;-79
2024/03/25 21:25:45;;;;;;;14.40;7.90;;;;;;;3.67;68.70;98216.52;105195;1266;98062;-80
2024/03/25 21:28:12;;;;;;;13.00;7.40;;;;;;;3.65;68.61;98214.03;105714;1271;97928;-80
2024/03/25 21:30:40;;;;;;;15.50;7.30;;;;;;;3.62;68.77;98220.30;105309;1262;110957;-80
2024/03/25 21:33:07;;;;;;;11.20;6.40;;;;;;;3.60;68.79;98223.95;105086;1263;99307;-79
2024/03/25 21:35:35;;;;;;;11.20;6.70;;;;;;;3.58;68.92;98220.36;104869;1264;106339;-80
2024/03/25 21:38:04;;;;;;;12.60;7.20;;;;;;;3.56;68.70;98223.79;105072;1262;97957;-79
2024/03/25 21:40:31;;;;;;;10.80;6.80;;;;;;;3.55;68.90;98221.77;105253;1262;97917;-79
2024/03/25 21:42:59;;;;;;;11.70;7.10;;;;;;;3.54;69.01;98225.11;105266;1260;109737;-78
2024/03/25 21:45:26;;;;;;;12.40;8.40;;;;;;;3.54;68.87;98224.30;106562;1260;97996;-78
2024/03/25 21:47:54;;;;;;;13.00;8.00;;;;;;;3.51;68.69;98226.39;105546;1260;107170;-78
2024/03/25 21:50:21;;;;;;;14.70;8.40;;;;;;;3.49;68.97;98231.58;105224;1274;97977;-78
2024/03/25 21:52:49;;;;;;;12.50;7.30;;;;;;;3.48;69.00;98237.77;105068;1262;97983;-78
2024/03/25 21:55:17;;;;;;;10.40;6.50;;;;;;;3.48;68.97;98239.67;105227;1262;110469;-78
2024/03/25 21:57:47;;;;;;;11.10;6.60;;;;;;;3.46;68.86;98240.71;105148;1263;98117;-78
2024/03/25 22:00:15;;;;;;;11.50;7.20;;;;;;;3.46;69.02;98241.39;105222;1262;107726;-78
2024/03/25 22:02:43;;;;;;;9.10;6.30;;;;;;;3.47;69.06;98239.09;105969;1260;97894;-79
2024/03/25 22:05:11;;;;;;;11.80;6.50;;;;;;;3.44;68.96;98239.92;105701;1262;97996;-78
2024/03/25 22:07:38;;;;;;;11.40;7.40;;;;;;;3.42;69.01;98243.55;105256;1262;110290;-78
2024/03/25 22:10:07;;;;;;;10.50;6.40;;;;;;;3.40;69.13;98249.79;105235;1262;97987;-80
2024/03/25 22:12:34;;;;;;;10.80;6.30;;;;;;;3.37;68.92;98248.72;105082;1259;107638;-80
2024/03/25 22:15:03;;;;;;;13.20;7.10;;;;;;;3.34;69.44;98250.11;105277;1262;97997;-80
2024/03/25 22:17:30;;;;;;;11.10;5.90;;;;;;;3.38;69.44;98249.55;105245;1262;97887;-78
2024/03/25 22:19:58;;;;;;;12.30;6.10;;;;;;;3.39;69.36;98249.80;105960;1263;110914;-78
2024/03/25 22:22:25;;;;;;;9.00;5.30;;;;;;;3.40;69.23;98253.09;105632;1262;97980;-78
2024/03/25 22:24:53;;;;;;;11.50;6.30;;;;;;;3.43;69.70;98253.32;105302;1262;107647;-78
2024/03/25 22:27:20;;;;;;;10.30;6.30;;;;;;;3.45;69.56;98253.72;105118;1264;98012;-78
2024/03/25 22:29:49;;;;;;;10.30;6.10;;;;;;;3.46;69.63;98255.26;105346;1262;99205;-78
2024/03/25 22:32:16;;;;;;;8.40;5.30;;;;;;;3.46;69.21;98257.16;105751;1264;110300;-78
2024/03/25 22:34:44;;;;;;;10.40;5.90;;;;;;;3.47;69.40;98254.65;106414;1272;98056;-78
2024/03/25 22:37:12;;;;;;;11.20;6.30;;;;;;;3.47;69.40;98258.17;106349;1263;107337;-78
2024/03/25 22:39:45;;;;;;;13.30;6.20;;;;;;;3.47;69.60;98260.61;106271;1263;97896;-78
2024/03/25 22:42:13;;;;;;;11.30;6.40;;;;;;;3.46;69.36;98256.65;106376;1260;97804;-78
2024/03/25 22:44:40;;;;;;;13.90;6.40;;;;;;;3.44;69.55;98258.15;106372;1262;111565;-79
2024/03/25 22:47:08;;;;;;;12.10;6.40;;;;;;;3.46;69.48;98263.67;106325;1263;97893;-78
2024/03/25 22:49:36;;;;;;;17.60;8.20;;;;;;;3.44;69.30;98264.27;106286;1264;106312;-78
2024/03/25 22:52:06;;;;;;;33.70;12.50;;;;;;;3.41;69.33;98271.95;106416;1263;98429;-78
2024/03/25 22:54:34;;;;;;;36.60;12.10;;;;;;;3.36;69.47;98268.05;106365;1261;97871;-78
2024/03/25 22:57:02;;;;;;;22.40;8.60;;;;;;;3.29;69.46;98270.58;106514;1258;111387;-79
2024/03/25 22:59:30;;;;;;;20.50;8.90;;;;;;;3.18;69.37;98272.89;106218;1263;98026;-78
2024/03/25 23:01:57;;;;;;;16.80;8.10;;;;;;;3.09;69.29;98272.88;106362;1263;105441;-78
2024/03/25 23:04:25;;;;;;;16.10;9.50;;;;;;;3.01;69.47;98283.30;106353;1273;97915;-78
2024/03/25 23:06:52;;;;;;;15.30;7.60;;;;;;;2.94;69.21;98286.44;106351;1270;98810;-78
2024/03/25 23:09:20;;;;;;;15.00;7.70;;;;;;;2.89;69.23;98285.48;106409;1263;111251;-79
2024/03/25 23:11:47;;;;;;;13.90;8.20;;;;;;;2.81;69.23;98285.38;106387;1266;97896;-78
2024/03/25 23:14:15;;;;;;;14.20;8.30;;;;;;;2.77;69.39;98287.21;106393;1263;105981;-78
2024/03/25 23:16:43;;;;;;;16.30;9.90;;;;;;;2.71;69.38;98292.21;106323;1270;97991;-78
2024/03/25 23:19:10;;;;;;;18.10;9.40;;;;;;;2.66;68.81;98294.61;106481;1263;97992;-78
2024/03/25 23:21:38;;;;;;;14.60;7.60;;;;;;;2.60;69.32;98298.91;106436;1263;111704;-78
2024/03/25 23:24:06;;;;;;;12.20;7.00;;;;;;;2.57;69.12;98297.17;106360;1263;97939;-79
2024/03/25 23:26:34;;;;;;;13.20;7.40;;;;;;;2.55;69.42;98299.73;106328;1272;107664;-78
2024/03/25 23:29:01;;;;;;;14.50;7.60;;;;;;;2.51;69.40;98295.17;106254;1263;98019;-79
2024/03/25 23:31:29;;;;;;;14.90;8.30;;;;;;;2.50;69.33;98292.27;106381;1271;97919;-78
2024/03/25 23:33:56;;;;;;;16.30;9.20;;;;;;;2.51;69.52;98297.07;106381;1262;113160;-78
2024/03/25 23:36:24;;;;;;;15.30;7.80;;;;;;;2.51;69.53;98298.85;106354;1262;98688;-79
2024/03/25 23:38:52;;;;;;;15.10;7.40;;;;;;;2.51;69.45;98302.70;106395;1263;105764;-78
2024/03/25 23:41:19;;;;;;;13.70;8.50;;;;;;;2.49;69.53;98304.02;106366;1263;98589;-79
2024/03/25 23:43:47;;;;;;;15.50;8.00;;;;;;;2.47;69.21;98306.96;106565;1263;98217;-78
2024/03/25 23:46:14;;;;;;;14.90;8.40;;;;;;;2.47;69.53;98308.35;106337;1262;109438;-78
2024/03/25 23:48:42;;;;;;;12.40;7.30;;;;;;;2.46;69.73;98309.97;106315;1263;97936;-78
2024/03/25 23:51:09;;;;;;;14.40;7.80;;;;;;;2.43;69.76;98310.14;106456;1271;106295;-79
2024/03/25 23:53:37;;;;;;;14.90;7.50;;;;;;;2.41;69.47;98312.34;106783;1263;98334;-78
2024/03/25 23:56:04;;;;;;;12.20;7.20;;;;;;;2.40;69.79;98312.05;106223;1263;97925;-79
2024/03/25 23:58:32;;;;;;;11.00;6.50;;;;;;;2.40;69.61;98314.50;106224;1257;109552;-79
